sensor_id;sensor_type;location;lat;lon;timestamp;P1;durP1;ratioP1;P2;durP2;ratioP2
22705;SDS011;11520;51.198;4.468;2022-07-21T00:01:09;6.18;;;5.57;;
22705;SDS011;11520;51.198;4.468;2022-07-21T00:03:36;8.13;;;6.05;;
22705;SDS011;11520;51.198;4.468;2022-07-21T00:06:02;7.47;;;5.60;;
22705;SDS011;11520;51.198;4.468;2022-07-21T00:08:28;7.55;;;5.80;;
22705;SDS011;11520;51.198;4.468;2022-07-21T00:10:54;7.35;;;6.25;;
22705;SDS011;11520;51.198;4.468;2022-07-21T00:13:20;8.90;;;6.03;;
22705;SDS011;11520;51.198;4.468;2022-07-21T00:15:45;7.05;;;5.65;;
22705;SDS011;11520;51.198;4.468;2022-07-21T00:18:14;9.45;;;6.10;;
22705;SDS011;11520;51.198;4.468;2022-07-21T00:20:41;8.00;;;6.18;;
22705;SDS011;11520;51.198;4.468;2022-07-21T00:23:08;11.10;;;7.03;;
22705;SDS011;11520;51.198;4.468;2022-07-21T00:25:33;7.40;;;5.78;;
22705;SDS011;11520;51.198;4.468;2022-07-21T00:27:59;10.48;;;6.90;;
22705;SDS011;11520;51.198;4.468;2022-07-21T00:30:26;10.48;;;6.22;;
22705;SDS011;11520;51.198;4.468;2022-07-21T00:32:51;9.70;;;6.55;;
22705;SDS011;11520;51.198;4.468;2022-07-21T00:35:18;8.25;;;6.38;;
22705;SDS011;11520;51.198;4.468;2022-07-21T00:37:43;7.88;;;6.72;;
22705;SDS011;11520;51.198;4.468;2022-07-21T00:40:09;7.53;;;6.72;;
22705;SDS011;11520;51.198;4.468;2022-07-21T00:42:38;8.50;;;6.40;;
22705;SDS011;11520;51.198;4.468;2022-07-21T00:45:06;9.18;;;6.05;;
22705;SDS011;11520;51.198;4.468;2022-07-21T00:47:33;7.15;;;5.97;;
22705;SDS011;11520;51.198;4.468;2022-07-21T00:50:01;8.13;;;5.65;;
22705;SDS011;11520;51.198;4.468;2022-07-21T00:52:29;7.03;;;5.32;;
22705;SDS011;11520;51.198;4.468;2022-07-21T00:54:54;8.05;;;5.60;;
22705;SDS011;11520;51.198;4.468;2022-07-21T00:57:20;8.90;;;5.18;;
22705;SDS011;11520;51.198;4.468;2022-07-21T00:59:47;7.10;;;4.65;;
22705;SDS011;11520;51.198;4.468;2022-07-21T01:02:13;6.60;;;4.55;;
22705;SDS011;11520;51.198;4.468;2022-07-21T01:04:39;6.38;;;4.70;;
22705;SDS011;11520;51.198;4.468;2022-07-21T01:07:05;7.95;;;4.80;;
22705;SDS011;11520;51.198;4.468;2022-07-21T01:09:32;7.90;;;4.43;;
22705;SDS011;11520;51.198;4.468;2022-07-21T01:11:58;5.93;;;4.22;;
22705;SDS011;11520;51.198;4.468;2022-07-21T01:14:25;10.85;;;4.70;;
22705;SDS011;11520;51.198;4.468;2022-07-21T01:16:51;5.70;;;4.45;;
22705;SDS011;11520;51.198;4.468;2022-07-21T01:19:19;8.98;;;5.07;;
22705;SDS011;11520;51.198;4.468;2022-07-21T01:21:45;5.65;;;4.30;;
22705;SDS011;11520;51.198;4.468;2022-07-21T01:24:13;7.05;;;4.30;;
22705;SDS011;11520;51.198;4.468;2022-07-21T01:26:49;6.15;;;4.57;;
22705;SDS011;11520;51.198;4.468;2022-07-21T01:29:18;7.15;;;4.93;;
22705;SDS011;11520;51.198;4.468;2022-07-21T01:31:45;7.05;;;4.82;;
22705;SDS011;11520;51.198;4.468;2022-07-21T01:34:12;8.95;;;5.00;;
22705;SDS011;11520;51.198;4.468;2022-07-21T01:36:38;8.10;;;5.25;;
22705;SDS011;11520;51.198;4.468;2022-07-21T01:39:06;5.40;;;4.90;;
22705;SDS011;11520;51.198;4.468;2022-07-21T01:41:51;6.70;;;5.70;;
22705;SDS011;11520;51.198;4.468;2022-07-21T01:44:18;8.73;;;5.82;;
22705;SDS011;11520;51.198;4.468;2022-07-21T01:46:50;8.70;;;5.53;;
22705;SDS011;11520;51.198;4.468;2022-07-21T01:49:19;7.72;;;5.70;;
22705;SDS011;11520;51.198;4.468;2022-07-21T01:51:45;15.55;;;6.93;;
22705;SDS011;11520;51.198;4.468;2022-07-21T01:54:12;7.80;;;5.72;;
22705;SDS011;11520;51.198;4.468;2022-07-21T01:56:38;9.77;;;5.90;;
22705;SDS011;11520;51.198;4.468;2022-07-21T01:59:06;12.50;;;6.50;;
22705;SDS011;11520;51.198;4.468;2022-07-21T02:01:33;7.68;;;5.80;;
22705;SDS011;11520;51.198;4.468;2022-07-21T02:04:02;9.23;;;6.50;;
22705;SDS011;11520;51.198;4.468;2022-07-21T02:06:30;10.15;;;6.22;;
22705;SDS011;11520;51.198;4.468;2022-07-21T02:08:56;10.23;;;6.40;;
22705;SDS011;11520;51.198;4.468;2022-07-21T02:11:22;7.82;;;5.80;;
22705;SDS011;11520;51.198;4.468;2022-07-21T02:13:48;9.18;;;6.13;;
22705;SDS011;11520;51.198;4.468;2022-07-21T02:16:13;9.30;;;5.50;;
22705;SDS011;11520;51.198;4.468;2022-07-21T02:18:40;9.90;;;5.72;;
22705;SDS011;11520;51.198;4.468;2022-07-21T02:21:07;9.23;;;5.38;;
22705;SDS011;11520;51.198;4.468;2022-07-21T02:23:33;8.45;;;5.63;;
22705;SDS011;11520;51.198;4.468;2022-07-21T02:26:00;5.75;;;4.75;;
22705;SDS011;11520;51.198;4.468;2022-07-21T02:28:26;8.68;;;6.00;;
22705;SDS011;11520;51.198;4.468;2022-07-21T02:30:52;7.65;;;5.07;;
22705;SDS011;11520;51.198;4.468;2022-07-21T02:33:19;9.85;;;4.72;;
22705;SDS011;11520;51.198;4.468;2022-07-21T02:35:45;9.77;;;5.55;;
22705;SDS011;11520;51.198;4.468;2022-07-21T02:38:11;7.55;;;5.63;;
22705;SDS011;11520;51.198;4.468;2022-07-21T02:40:38;9.50;;;4.85;;
22705;SDS011;11520;51.198;4.468;2022-07-21T02:43:04;8.40;;;4.95;;
22705;SDS011;11520;51.198;4.468;2022-07-21T02:45:32;7.50;;;4.43;;
22705;SDS011;11520;51.198;4.468;2022-07-21T02:48:00;9.30;;;4.38;;
22705;SDS011;11520;51.198;4.468;2022-07-21T02:50:30;8.40;;;4.53;;
22705;SDS011;11520;51.198;4.468;2022-07-21T02:52:58;8.27;;;5.00;;
22705;SDS011;11520;51.198;4.468;2022-07-21T02:55:29;9.75;;;5.32;;
22705;SDS011;11520;51.198;4.468;2022-07-21T02:58:11;9.40;;;4.32;;
22705;SDS011;11520;51.198;4.468;2022-07-21T03:00:50;7.20;;;4.28;;
22705;SDS011;11520;51.198;4.468;2022-07-21T03:03:16;7.10;;;4.15;;
22705;SDS011;11520;51.198;4.468;2022-07-21T03:05:42;8.32;;;4.38;;
22705;SDS011;11520;51.198;4.468;2022-07-21T03:08:08;6.43;;;4.38;;
22705;SDS011;11520;51.198;4.468;2022-07-21T03:10:35;13.10;;;4.75;;
22705;SDS011;11520;51.198;4.468;2022-07-21T03:13:02;10.68;;;4.65;;
22705;SDS011;11520;51.198;4.468;2022-07-21T03:15:28;8.63;;;4.95;;
22705;SDS011;11520;51.198;4.468;2022-07-21T03:17:53;9.90;;;5.00;;
22705;SDS011;11520;51.198;4.468;2022-07-21T03:20:27;9.90;;;4.47;;
22705;SDS011;11520;51.198;4.468;2022-07-21T03:22:56;8.85;;;4.53;;
22705;SDS011;11520;51.198;4.468;2022-07-21T03:25:22;5.90;;;4.63;;
22705;SDS011;11520;51.198;4.468;2022-07-21T03:27:48;11.50;;;4.72;;
22705;SDS011;11520;51.198;4.468;2022-07-21T03:30:14;9.07;;;4.82;;
22705;SDS011;11520;51.198;4.468;2022-07-21T03:32:43;8.45;;;4.85;;
22705;SDS011;11520;51.198;4.468;2022-07-21T03:35:10;9.52;;;5.55;;
22705;SDS011;11520;51.198;4.468;2022-07-21T03:37:43;8.50;;;5.07;;
22705;SDS011;11520;51.198;4.468;2022-07-21T03:40:15;10.27;;;5.93;;
22705;SDS011;11520;51.198;4.468;2022-07-21T03:42:44;11.07;;;5.35;;
22705;SDS011;11520;51.198;4.468;2022-07-21T03:45:10;12.65;;;5.68;;
22705;SDS011;11520;51.198;4.468;2022-07-21T03:47:37;7.43;;;4.57;;
22705;SDS011;11520;51.198;4.468;2022-07-21T03:50:04;11.65;;;5.80;;
22705;SDS011;11520;51.198;4.468;2022-07-21T03:52:30;10.70;;;5.53;;
22705;SDS011;11520;51.198;4.468;2022-07-21T03:54:57;10.70;;;5.10;;
22705;SDS011;11520;51.198;4.468;2022-07-21T03:57:38;11.93;;;5.60;;
22705;SDS011;11520;51.198;4.468;2022-07-21T04:00:10;9.10;;;6.13;;
22705;SDS011;11520;51.198;4.468;2022-07-21T04:02:39;8.65;;;5.45;;
22705;SDS011;11520;51.198;4.468;2022-07-21T04:05:10;11.15;;;5.40;;
22705;SDS011;11520;51.198;4.468;2022-07-21T04:07:38;11.10;;;6.03;;
22705;SDS011;11520;51.198;4.468;2022-07-21T04:10:05;12.63;;;6.22;;
22705;SDS011;11520;51.198;4.468;2022-07-21T04:12:31;11.48;;;6.38;;
22705;SDS011;11520;51.198;4.468;2022-07-21T04:14:56;9.52;;;6.70;;
22705;SDS011;11520;51.198;4.468;2022-07-21T04:17:22;11.52;;;6.72;;
22705;SDS011;11520;51.198;4.468;2022-07-21T04:19:48;11.85;;;6.80;;
22705;SDS011;11520;51.198;4.468;2022-07-21T04:22:14;11.82;;;7.47;;
22705;SDS011;11520;51.198;4.468;2022-07-21T04:24:39;14.38;;;7.68;;
22705;SDS011;11520;51.198;4.468;2022-07-21T04:27:05;13.85;;;7.80;;
22705;SDS011;11520;51.198;4.468;2022-07-21T04:29:31;10.45;;;7.60;;
22705;SDS011;11520;51.198;4.468;2022-07-21T04:31:58;14.80;;;8.05;;
22705;SDS011;11520;51.198;4.468;2022-07-21T04:34:24;11.18;;;7.57;;
22705;SDS011;11520;51.198;4.468;2022-07-21T04:36:50;16.42;;;8.55;;
22705;SDS011;11520;51.198;4.468;2022-07-21T04:39:16;16.25;;;8.40;;
22705;SDS011;11520;51.198;4.468;2022-07-21T04:41:41;13.63;;;8.27;;
22705;SDS011;11520;51.198;4.468;2022-07-21T04:44:08;15.65;;;7.50;;
22705;SDS011;11520;51.198;4.468;2022-07-21T04:46:33;18.42;;;9.23;;
22705;SDS011;11520;51.198;4.468;2022-07-21T04:48:59;16.33;;;9.40;;
22705;SDS011;11520;51.198;4.468;2022-07-21T04:51:24;18.73;;;10.15;;
22705;SDS011;11520;51.198;4.468;2022-07-21T04:53:51;15.85;;;8.77;;
22705;SDS011;11520;51.198;4.468;2022-07-21T04:56:17;18.73;;;9.63;;
22705;SDS011;11520;51.198;4.468;2022-07-21T04:58:42;18.33;;;9.85;;
22705;SDS011;11520;51.198;4.468;2022-07-21T05:01:08;15.88;;;8.82;;
22705;SDS011;11520;51.198;4.468;2022-07-21T05:03:33;16.33;;;9.52;;
22705;SDS011;11520;51.198;4.468;2022-07-21T05:05:59;20.50;;;10.35;;
22705;SDS011;11520;51.198;4.468;2022-07-21T05:08:25;20.20;;;10.25;;
22705;SDS011;11520;51.198;4.468;2022-07-21T05:10:52;17.27;;;11.30;;
22705;SDS011;11520;51.198;4.468;2022-07-21T05:13:18;17.20;;;10.73;;
22705;SDS011;11520;51.198;4.468;2022-07-21T05:15:44;25.10;;;10.65;;
22705;SDS011;11520;51.198;4.468;2022-07-21T05:18:09;15.70;;;9.73;;
22705;SDS011;11520;51.198;4.468;2022-07-21T05:20:35;23.35;;;10.73;;
22705;SDS011;11520;51.198;4.468;2022-07-21T05:23:01;20.40;;;12.57;;
22705;SDS011;11520;51.198;4.468;2022-07-21T05:25:27;31.90;;;13.48;;
22705;SDS011;11520;51.198;4.468;2022-07-21T05:27:54;20.90;;;14.25;;
22705;SDS011;11520;51.198;4.468;2022-07-21T05:30:20;20.30;;;13.15;;
22705;SDS011;11520;51.198;4.468;2022-07-21T05:32:45;27.15;;;14.18;;
22705;SDS011;11520;51.198;4.468;2022-07-21T05:35:11;21.73;;;13.05;;
22705;SDS011;11520;51.198;4.468;2022-07-21T05:37:38;19.60;;;12.77;;
22705;SDS011;11520;51.198;4.468;2022-07-21T05:40:06;19.25;;;13.13;;
22705;SDS011;11520;51.198;4.468;2022-07-21T05:42:33;24.17;;;13.77;;
22705;SDS011;11520;51.198;4.468;2022-07-21T05:44:59;24.15;;;15.02;;
22705;SDS011;11520;51.198;4.468;2022-07-21T05:47:25;20.85;;;13.82;;
22705;SDS011;11520;51.198;4.468;2022-07-21T05:49:51;23.00;;;14.70;;
22705;SDS011;11520;51.198;4.468;2022-07-21T05:52:16;20.25;;;13.90;;
22705;SDS011;11520;51.198;4.468;2022-07-21T05:54:43;21.70;;;14.20;;
22705;SDS011;11520;51.198;4.468;2022-07-21T05:57:09;21.33;;;15.15;;
22705;SDS011;11520;51.198;4.468;2022-07-21T05:59:35;19.33;;;14.30;;
22705;SDS011;11520;51.198;4.468;2022-07-21T06:02:01;20.00;;;14.90;;
22705;SDS011;11520;51.198;4.468;2022-07-21T06:04:27;23.38;;;13.55;;
22705;SDS011;11520;51.198;4.468;2022-07-21T06:06:54;20.73;;;14.40;;
22705;SDS011;11520;51.198;4.468;2022-07-21T06:09:20;20.33;;;14.52;;
22705;SDS011;11520;51.198;4.468;2022-07-21T06:11:46;18.00;;;14.30;;
22705;SDS011;11520;51.198;4.468;2022-07-21T06:14:12;25.45;;;15.52;;
22705;SDS011;11520;51.198;4.468;2022-07-21T06:16:38;19.48;;;14.32;;
22705;SDS011;11520;51.198;4.468;2022-07-21T06:19:04;21.83;;;14.82;;
22705;SDS011;11520;51.198;4.468;2022-07-21T06:21:33;20.40;;;15.15;;
22705;SDS011;11520;51.198;4.468;2022-07-21T06:24:00;21.65;;;14.93;;
22705;SDS011;11520;51.198;4.468;2022-07-21T06:26:27;23.58;;;14.88;;
22705;SDS011;11520;51.198;4.468;2022-07-21T06:28:54;17.88;;;13.30;;
22705;SDS011;11520;51.198;4.468;2022-07-21T06:31:21;18.15;;;13.13;;
22705;SDS011;11520;51.198;4.468;2022-07-21T06:33:49;15.02;;;11.57;;
22705;SDS011;11520;51.198;4.468;2022-07-21T06:36:16;13.77;;;11.13;;
22705;SDS011;11520;51.198;4.468;2022-07-21T06:38:43;17.42;;;12.38;;
22705;SDS011;11520;51.198;4.468;2022-07-21T06:43:42;19.77;;;13.00;;
22705;SDS011;11520;51.198;4.468;2022-07-21T06:46:11;12.57;;;10.02;;
22705;SDS011;11520;51.198;4.468;2022-07-21T06:48:36;14.18;;;10.65;;
22705;SDS011;11520;51.198;4.468;2022-07-21T06:51:03;16.02;;;11.02;;
22705;SDS011;11520;51.198;4.468;2022-07-21T06:53:35;12.23;;;10.50;;
22705;SDS011;11520;51.198;4.468;2022-07-21T06:56:01;11.57;;;9.02;;
22705;SDS011;11520;51.198;4.468;2022-07-21T06:58:32;12.38;;;9.52;;
22705;SDS011;11520;51.198;4.468;2022-07-21T07:00:59;10.52;;;8.70;;
22705;SDS011;11520;51.198;4.468;2022-07-21T07:03:26;9.95;;;8.73;;
22705;SDS011;11520;51.198;4.468;2022-07-21T07:05:54;10.07;;;8.75;;
22705;SDS011;11520;51.198;4.468;2022-07-21T07:08:21;15.23;;;9.68;;
22705;SDS011;11520;51.198;4.468;2022-07-21T07:10:49;12.15;;;10.43;;
22705;SDS011;11520;51.198;4.468;2022-07-21T07:13:15;14.02;;;10.38;;
22705;SDS011;11520;51.198;4.468;2022-07-21T07:15:43;13.82;;;10.48;;
22705;SDS011;11520;51.198;4.468;2022-07-21T07:18:10;15.32;;;11.48;;
22705;SDS011;11520;51.198;4.468;2022-07-21T07:20:36;14.13;;;11.38;;
22705;SDS011;11520;51.198;4.468;2022-07-21T07:23:02;14.00;;;12.07;;
22705;SDS011;11520;51.198;4.468;2022-07-21T07:25:29;15.18;;;13.43;;
22705;SDS011;11520;51.198;4.468;2022-07-21T07:27:55;18.85;;;13.60;;
22705;SDS011;11520;51.198;4.468;2022-07-21T07:30:25;16.90;;;14.63;;
22705;SDS011;11520;51.198;4.468;2022-07-21T07:32:52;18.65;;;14.40;;
22705;SDS011;11520;51.198;4.468;2022-07-21T07:35:17;17.33;;;13.05;;
22705;SDS011;11520;51.198;4.468;2022-07-21T07:37:45;17.58;;;14.07;;
22705;SDS011;11520;51.198;4.468;2022-07-21T07:40:18;17.48;;;14.40;;
22705;SDS011;11520;51.198;4.468;2022-07-21T07:42:47;16.60;;;14.07;;
22705;SDS011;11520;51.198;4.468;2022-07-21T07:45:13;20.13;;;15.70;;
22705;SDS011;11520;51.198;4.468;2022-07-21T07:47:40;21.10;;;15.85;;
22705;SDS011;11520;51.198;4.468;2022-07-21T07:50:07;22.08;;;15.40;;
22705;SDS011;11520;51.198;4.468;2022-07-21T07:52:37;23.02;;;16.33;;
22705;SDS011;11520;51.198;4.468;2022-07-21T07:55:04;22.67;;;17.13;;
22705;SDS011;11520;51.198;4.468;2022-07-21T07:57:33;23.33;;;17.80;;
22705;SDS011;11520;51.198;4.468;2022-07-21T07:59:59;21.88;;;16.63;;
22705;SDS011;11520;51.198;4.468;2022-07-21T08:02:26;22.30;;;15.52;;
22705;SDS011;11520;51.198;4.468;2022-07-21T08:04:53;23.65;;;14.60;;
22705;SDS011;11520;51.198;4.468;2022-07-21T08:07:20;22.25;;;15.48;;
22705;SDS011;11520;51.198;4.468;2022-07-21T08:09:46;23.75;;;15.98;;
22705;SDS011;11520;51.198;4.468;2022-07-21T08:12:13;23.80;;;15.80;;
22705;SDS011;11520;51.198;4.468;2022-07-21T08:14:39;20.95;;;12.90;;
22705;SDS011;11520;51.198;4.468;2022-07-21T08:17:07;18.65;;;13.15;;
22705;SDS011;11520;51.198;4.468;2022-07-21T08:19:34;12.18;;;10.77;;
22705;SDS011;11520;51.198;4.468;2022-07-21T08:22:01;19.70;;;12.82;;
22705;SDS011;11520;51.198;4.468;2022-07-21T08:24:28;16.10;;;10.77;;
22705;SDS011;11520;51.198;4.468;2022-07-21T08:26:54;12.63;;;9.65;;
22705;SDS011;11520;51.198;4.468;2022-07-21T08:29:21;13.23;;;10.18;;
22705;SDS011;11520;51.198;4.468;2022-07-21T08:31:49;14.48;;;10.65;;
22705;SDS011;11520;51.198;4.468;2022-07-21T08:34:15;15.38;;;10.48;;
22705;SDS011;11520;51.198;4.468;2022-07-21T08:36:40;13.07;;;9.88;;
22705;SDS011;11520;51.198;4.468;2022-07-21T08:39:07;16.25;;;11.02;;
22705;SDS011;11520;51.198;4.468;2022-07-21T08:41:33;18.25;;;12.80;;
22705;SDS011;11520;51.198;4.468;2022-07-21T08:44:01;19.30;;;12.23;;
22705;SDS011;11520;51.198;4.468;2022-07-21T08:46:26;19.25;;;11.82;;
22705;SDS011;11520;51.198;4.468;2022-07-21T08:48:53;17.98;;;12.30;;
22705;SDS011;11520;51.198;4.468;2022-07-21T08:51:19;20.02;;;12.52;;
22705;SDS011;11520;51.198;4.468;2022-07-21T08:53:46;16.30;;;11.10;;
22705;SDS011;11520;51.198;4.468;2022-07-21T08:56:12;18.10;;;10.77;;
22705;SDS011;11520;51.198;4.468;2022-07-21T08:58:38;12.68;;;10.00;;
22705;SDS011;11520;51.198;4.468;2022-07-21T09:01:05;15.80;;;9.43;;
22705;SDS011;11520;51.198;4.468;2022-07-21T09:03:31;18.80;;;9.57;;
22705;SDS011;11520;51.198;4.468;2022-07-21T09:06:05;16.90;;;9.70;;
22705;SDS011;11520;51.198;4.468;2022-07-21T09:08:35;13.48;;;9.38;;
22705;SDS011;11520;51.198;4.468;2022-07-21T09:13:48;12.25;;;8.90;;
22705;SDS011;11520;51.198;4.468;2022-07-21T09:19:50;9.73;;;7.78;;
22705;SDS011;11520;51.198;4.468;2022-07-21T09:37:40;11.95;;;6.25;;
22705;SDS011;11520;51.198;4.468;2022-07-21T09:40:13;10.57;;;6.10;;
22705;SDS011;11520;51.198;4.468;2022-07-21T09:45:12;10.25;;;6.88;;
22705;SDS011;11520;51.198;4.468;2022-07-21T09:47:40;9.43;;;6.93;;
22705;SDS011;11520;51.198;4.468;2022-07-21T09:50:09;12.43;;;7.13;;
22705;SDS011;11520;51.198;4.468;2022-07-21T09:52:36;11.75;;;6.60;;
22705;SDS011;11520;51.198;4.468;2022-07-21T09:55:05;14.40;;;7.40;;
22705;SDS011;11520;51.198;4.468;2022-07-21T09:57:33;12.27;;;7.78;;
22705;SDS011;11520;51.198;4.468;2022-07-21T10:00:00;12.52;;;7.47;;
22705;SDS011;11520;51.198;4.468;2022-07-21T10:07:36;10.35;;;6.68;;
22705;SDS011;11520;51.198;4.468;2022-07-21T10:12:33;11.85;;;6.93;;
22705;SDS011;11520;51.198;4.468;2022-07-21T10:15:01;9.82;;;6.03;;
22705;SDS011;11520;51.198;4.468;2022-07-21T10:17:31;8.90;;;5.65;;
22705;SDS011;11520;51.198;4.468;2022-07-21T10:25:41;10.18;;;6.00;;
22705;SDS011;11520;51.198;4.468;2022-07-21T10:30:52;6.90;;;5.18;;
22705;SDS011;11520;51.198;4.468;2022-07-21T10:33:50;8.90;;;4.82;;
22705;SDS011;11520;51.198;4.468;2022-07-21T10:36:38;9.18;;;5.13;;
22705;SDS011;11520;51.198;4.468;2022-07-21T10:41:44;6.03;;;3.92;;
22705;SDS011;11520;51.198;4.468;2022-07-21T10:49:44;7.90;;;4.93;;
22705;SDS011;11520;51.198;4.468;2022-07-21T10:55:23;8.18;;;4.35;;
22705;SDS011;11520;51.198;4.468;2022-07-21T11:03:39;5.65;;;3.97;;
22705;SDS011;11520;51.198;4.468;2022-07-21T11:06:13;7.35;;;4.47;;
22705;SDS011;11520;51.198;4.468;2022-07-21T11:14:46;7.88;;;4.43;;
22705;SDS011;11520;51.198;4.468;2022-07-21T11:17:30;6.15;;;4.65;;
22705;SDS011;11520;51.198;4.468;2022-07-21T11:19:58;7.22;;;5.47;;
22705;SDS011;11520;51.198;4.468;2022-07-21T11:22:25;11.07;;;4.95;;
22705;SDS011;11520;51.198;4.468;2022-07-21T11:27:47;7.18;;;4.40;;
22705;SDS011;11520;51.198;4.468;2022-07-21T11:30:17;7.63;;;4.25;;
22705;SDS011;11520;51.198;4.468;2022-07-21T11:32:48;7.57;;;4.53;;
22705;SDS011;11520;51.198;4.468;2022-07-21T11:35:15;7.88;;;4.85;;
22705;SDS011;11520;51.198;4.468;2022-07-21T11:37:44;6.63;;;4.25;;
22705;SDS011;11520;51.198;4.468;2022-07-21T11:40:11;6.72;;;4.05;;
22705;SDS011;11520;51.198;4.468;2022-07-21T11:42:42;6.50;;;3.50;;
22705;SDS011;11520;51.198;4.468;2022-07-21T11:45:10;5.35;;;3.15;;
22705;SDS011;11520;51.198;4.468;2022-07-21T11:47:37;7.50;;;3.70;;
22705;SDS011;11520;51.198;4.468;2022-07-21T11:50:05;5.82;;;2.90;;
22705;SDS011;11520;51.198;4.468;2022-07-21T11:52:37;7.47;;;3.15;;
22705;SDS011;11520;51.198;4.468;2022-07-21T11:55:06;4.47;;;3.22;;
22705;SDS011;11520;51.198;4.468;2022-07-21T11:57:34;5.75;;;3.50;;
22705;SDS011;11520;51.198;4.468;2022-07-21T12:00:01;7.50;;;3.83;;
22705;SDS011;11520;51.198;4.468;2022-07-21T12:02:31;6.47;;;3.47;;
22705;SDS011;11520;51.198;4.468;2022-07-21T12:07:29;10.88;;;3.88;;
22705;SDS011;11520;51.198;4.468;2022-07-21T12:10:08;6.05;;;3.05;;
22705;SDS011;11520;51.198;4.468;2022-07-21T12:15:13;6.57;;;2.75;;
22705;SDS011;11520;51.198;4.468;2022-07-21T12:17:52;4.55;;;2.78;;
22705;SDS011;11520;51.198;4.468;2022-07-21T12:20:23;9.32;;;3.33;;
22705;SDS011;11520;51.198;4.468;2022-07-21T12:22:53;9.50;;;3.40;;
22705;SDS011;11520;51.198;4.468;2022-07-21T12:25:33;10.13;;;3.28;;
22705;SDS011;11520;51.198;4.468;2022-07-21T12:28:01;8.73;;;2.70;;
22705;SDS011;11520;51.198;4.468;2022-07-21T12:30:30;7.05;;;3.53;;
22705;SDS011;11520;51.198;4.468;2022-07-21T12:33:10;9.02;;;3.28;;
22705;SDS011;11520;51.198;4.468;2022-07-21T12:35:40;7.28;;;3.05;;
22705;SDS011;11520;51.198;4.468;2022-07-21T12:38:09;7.72;;;3.05;;
22705;SDS011;11520;51.198;4.468;2022-07-21T12:40:40;7.28;;;2.92;;
22705;SDS011;11520;51.198;4.468;2022-07-21T12:43:12;5.70;;;3.15;;
22705;SDS011;11520;51.198;4.468;2022-07-21T12:48:19;8.35;;;3.78;;
22705;SDS011;11520;51.198;4.468;2022-07-21T12:51:02;8.40;;;3.20;;
22705;SDS011;11520;51.198;4.468;2022-07-21T12:53:35;9.55;;;3.65;;
22705;SDS011;11520;51.198;4.468;2022-07-21T12:56:08;9.73;;;3.47;;
22705;SDS011;11520;51.198;4.468;2022-07-21T13:01:08;8.07;;;4.00;;
22705;SDS011;11520;51.198;4.468;2022-07-21T13:03:34;9.05;;;3.80;;
22705;SDS011;11520;51.198;4.468;2022-07-21T13:06:01;6.78;;;3.50;;
22705;SDS011;11520;51.198;4.468;2022-07-21T13:08:28;8.98;;;3.75;;
22705;SDS011;11520;51.198;4.468;2022-07-21T13:10:54;11.50;;;4.10;;
22705;SDS011;11520;51.198;4.468;2022-07-21T13:13:21;10.93;;;3.80;;
22705;SDS011;11520;51.198;4.468;2022-07-21T13:15:46;7.85;;;3.25;;
22705;SDS011;11520;51.198;4.468;2022-07-21T13:18:13;7.90;;;3.33;;
22705;SDS011;11520;51.198;4.468;2022-07-21T13:20:42;8.73;;;3.67;;
22705;SDS011;11520;51.198;4.468;2022-07-21T13:23:12;9.57;;;3.70;;
22705;SDS011;11520;51.198;4.468;2022-07-21T13:25:38;9.50;;;3.60;;
22705;SDS011;11520;51.198;4.468;2022-07-21T13:28:04;14.55;;;3.58;;
22705;SDS011;11520;51.198;4.468;2022-07-21T13:30:31;12.93;;;4.38;;
22705;SDS011;11520;51.198;4.468;2022-07-21T13:32:57;8.00;;;3.90;;
22705;SDS011;11520;51.198;4.468;2022-07-21T13:35:23;12.38;;;3.40;;
22705;SDS011;11520;51.198;4.468;2022-07-21T13:37:52;13.52;;;4.40;;
22705;SDS011;11520;51.198;4.468;2022-07-21T13:40:21;10.50;;;3.95;;
22705;SDS011;11520;51.198;4.468;2022-07-21T13:42:48;11.70;;;3.78;;
22705;SDS011;11520;51.198;4.468;2022-07-21T13:45:17;10.57;;;3.78;;
22705;SDS011;11520;51.198;4.468;2022-07-21T13:47:43;12.45;;;4.30;;
22705;SDS011;11520;51.198;4.468;2022-07-21T13:50:10;12.13;;;4.10;;
22705;SDS011;11520;51.198;4.468;2022-07-21T13:52:37;13.45;;;3.65;;
22705;SDS011;11520;51.198;4.468;2022-07-21T13:55:07;13.73;;;3.25;;
22705;SDS011;11520;51.198;4.468;2022-07-21T13:57:34;12.23;;;4.00;;
22705;SDS011;11520;51.198;4.468;2022-07-21T14:02:33;9.75;;;3.55;;
22705;SDS011;11520;51.198;4.468;2022-07-21T14:04:59;11.00;;;3.33;;
22705;SDS011;11520;51.198;4.468;2022-07-21T14:07:26;9.27;;;3.35;;
22705;SDS011;11520;51.198;4.468;2022-07-21T14:09:52;10.00;;;3.05;;
22705;SDS011;11520;51.198;4.468;2022-07-21T14:12:18;9.18;;;4.07;;
22705;SDS011;11520;51.198;4.468;2022-07-21T14:14:45;13.10;;;3.83;;
22705;SDS011;11520;51.198;4.468;2022-07-21T14:17:12;9.98;;;3.35;;
22705;SDS011;11520;51.198;4.468;2022-07-21T14:19:40;10.52;;;3.70;;
22705;SDS011;11520;51.198;4.468;2022-07-21T14:22:05;13.02;;;4.85;;
22705;SDS011;11520;51.198;4.468;2022-07-21T14:24:31;13.00;;;4.25;;
22705;SDS011;11520;51.198;4.468;2022-07-21T14:27:17;11.27;;;4.15;;
22705;SDS011;11520;51.198;4.468;2022-07-21T14:32:11;17.00;;;4.93;;
22705;SDS011;11520;51.198;4.468;2022-07-21T14:34:37;17.55;;;4.50;;
22705;SDS011;11520;51.198;4.468;2022-07-21T14:37:03;13.05;;;5.13;;
22705;SDS011;11520;51.198;4.468;2022-07-21T14:39:29;10.05;;;3.90;;
22705;SDS011;11520;51.198;4.468;2022-07-21T14:41:54;11.13;;;3.92;;
22705;SDS011;11520;51.198;4.468;2022-07-21T14:44:21;15.27;;;5.00;;
22705;SDS011;11520;51.198;4.468;2022-07-21T14:46:48;12.60;;;4.80;;
22705;SDS011;11520;51.198;4.468;2022-07-21T14:49:15;14.43;;;4.70;;
22705;SDS011;11520;51.198;4.468;2022-07-21T14:51:43;12.65;;;4.40;;
22705;SDS011;11520;51.198;4.468;2022-07-21T14:54:14;16.48;;;4.45;;
22705;SDS011;11520;51.198;4.468;2022-07-21T14:56:40;9.88;;;3.80;;
22705;SDS011;11520;51.198;4.468;2022-07-21T14:59:08;14.88;;;4.25;;
22705;SDS011;11520;51.198;4.468;2022-07-21T15:01:33;13.82;;;4.82;;
22705;SDS011;11520;51.198;4.468;2022-07-21T15:03:59;17.05;;;4.85;;
22705;SDS011;11520;51.198;4.468;2022-07-21T15:06:25;14.48;;;4.00;;
22705;SDS011;11520;51.198;4.468;2022-07-21T15:08:50;11.60;;;4.30;;
22705;SDS011;11520;51.198;4.468;2022-07-21T15:11:16;11.77;;;4.18;;
22705;SDS011;11520;51.198;4.468;2022-07-21T15:16:11;11.35;;;3.90;;
22705;SDS011;11520;51.198;4.468;2022-07-21T15:18:37;13.73;;;4.15;;
22705;SDS011;11520;51.198;4.468;2022-07-21T15:21:02;9.95;;;3.45;;
22705;SDS011;11520;51.198;4.468;2022-07-21T15:23:29;11.40;;;3.60;;
22705;SDS011;11520;51.198;4.468;2022-07-21T15:25:55;13.27;;;3.38;;
22705;SDS011;11520;51.198;4.468;2022-07-21T15:28:22;9.45;;;3.78;;
22705;SDS011;11520;51.198;4.468;2022-07-21T15:30:47;12.18;;;3.85;;
22705;SDS011;11520;51.198;4.468;2022-07-21T15:33:14;13.73;;;3.40;;
22705;SDS011;11520;51.198;4.468;2022-07-21T15:35:40;11.88;;;4.10;;
22705;SDS011;11520;51.198;4.468;2022-07-21T15:38:05;12.57;;;4.13;;
22705;SDS011;11520;51.198;4.468;2022-07-21T15:40:33;15.50;;;4.63;;
22705;SDS011;11520;51.198;4.468;2022-07-21T15:43:00;11.90;;;3.30;;
22705;SDS011;11520;51.198;4.468;2022-07-21T15:45:25;14.90;;;4.57;;
22705;SDS011;11520;51.198;4.468;2022-07-21T15:47:53;10.80;;;4.18;;
22705;SDS011;11520;51.198;4.468;2022-07-21T15:50:22;13.90;;;3.47;;
22705;SDS011;11520;51.198;4.468;2022-07-21T15:55:40;13.60;;;3.78;;
22705;SDS011;11520;51.198;4.468;2022-07-21T16:01:25;16.65;;;4.10;;
22705;SDS011;11520;51.198;4.468;2022-07-21T16:03:51;19.20;;;4.38;;
22705;SDS011;11520;51.198;4.468;2022-07-21T16:06:17;15.07;;;3.92;;
22705;SDS011;11520;51.198;4.468;2022-07-21T16:08:43;20.52;;;4.97;;
22705;SDS011;11520;51.198;4.468;2022-07-21T16:11:10;14.98;;;4.45;;